createdAt,value
2015-03-02T00:00:04.517Z,94649
2015-03-02T00:00:23.008Z,94652
2015-03-02T00:00:41.474Z,94657
2015-03-02T00:00:59.952Z,94657
2015-03-02T00:01:18.487Z,94654
2015-03-02T00:01:36.968Z,94665
2015-03-02T00:01:55.477Z,94655
2015-03-02T00:02:13.909Z,94655
2015-03-02T00:02:32.374Z,94647
2015-03-02T00:02:50.835Z,94657
2015-03-02T00:03:09.218Z,94652
2015-03-02T00:03:27.807Z,94655
2015-03-02T00:03:46.223Z,94652
2015-03-02T00:04:04.669Z,94652
2015-03-02T00:04:23.114Z,94649
2015-03-02T00:04:41.723Z,94650
2015-03-02T00:05:00.426Z,94641
2015-03-02T00:05:18.200Z,94647
2015-03-02T00:05:36.784Z,94650
2015-03-02T00:05:55.230Z,94658
2015-03-02T00:06:13.682Z,94651
2015-03-02T00:06:32.076Z,94651
2015-03-02T00:06:50.593Z,94654
2015-03-02T00:07:08.986Z,94654
2015-03-02T00:07:27.523Z,94639
2015-03-02T00:07:46.030Z,94642
2015-03-02T00:08:04.454Z,94642
2015-03-02T00:08:22.904Z,94641
2015-03-02T00:08:41.436Z,94647
2015-03-02T00:09:00.020Z,94647
2015-03-02T00:09:18.401Z,94636
2015-03-02T00:09:37.252Z,94634
2015-03-02T00:09:55.633Z,94639
2015-03-02T00:10:14.030Z,94642
2015-03-02T00:10:32.550Z,94651
2015-03-02T00:10:50.966Z,94637
2015-03-02T00:11:09.439Z,94642
2015-03-02T00:11:27.882Z,94631
2015-03-02T00:11:46.398Z,94633
2015-03-02T00:12:04.937Z,94639
2015-03-02T00:12:23.634Z,94631
2015-03-02T00:12:42.021Z,94625
2015-03-02T00:13:00.744Z,94633
2015-03-02T00:13:19.135Z,94625
2015-03-02T00:13:37.142Z,94625
2015-03-02T00:13:55.713Z,94628
2015-03-02T00:14:14.230Z,94630
2015-03-02T00:14:32.613Z,94633
2015-03-02T00:14:51.047Z,94628
2015-03-02T00:15:09.618Z,94619
2015-03-02T00:15:28.172Z,94619
2015-03-02T00:15:46.723Z,94624
2015-03-02T00:16:05.183Z,94619
2015-03-02T00:16:23.697Z,94613
2015-03-02T00:16:42.081Z,94621
2015-03-02T00:17:00.696Z,94621
2015-03-02T00:17:19.080Z,94615
2015-03-02T00:17:37.774Z,94621
2015-03-02T00:17:56.253Z,94630
2015-03-02T00:18:14.678Z,94621
2015-03-02T00:18:33.268Z,94627
2015-03-02T00:18:51.772Z,94619
2015-03-02T00:19:10.159Z,94613
2015-03-02T00:19:28.762Z,94616
2015-03-02T00:19:47.210Z,94630
2015-03-02T00:20:05.785Z,94619
2015-03-02T00:20:24.387Z,94622
2015-03-02T00:20:42.997Z,94613
2015-03-02T00:21:01.391Z,94616
2015-03-02T00:21:20.067Z,94628
2015-03-02T00:21:38.653Z,94625
2015-03-02T00:21:57.498Z,94625
2015-03-02T00:22:15.906Z,94627
2015-03-02T00:22:34.673Z,94619
2015-03-02T00:22:53.268Z,94616
2015-03-02T00:23:11.791Z,94605
2015-03-02T00:23:30.316Z,94619
2015-03-02T00:23:48.751Z,94622
2015-03-02T00:24:06.800Z,94628
2015-03-02T00:24:25.262Z,94616
2015-03-02T00:24:43.842Z,94610
2015-03-02T00:25:02.232Z,94619
2015-03-02T00:25:20.917Z,94611
2015-03-02T00:25:39.437Z,94616
2015-03-02T00:25:57.821Z,94619
2015-03-02T00:26:16.352Z,94617
2015-03-02T00:26:34.798Z,94620
2015-03-02T00:26:53.307Z,94620
2015-03-02T00:27:12.003Z,94617
2015-03-02T00:27:30.902Z,94620
2015-03-02T00:27:49.397Z,94628
2015-03-02T00:28:07.935Z,94622
2015-03-02T00:28:26.561Z,94625
2015-03-02T00:28:45.135Z,94622
2015-03-02T00:29:03.519Z,94617
2015-03-02T00:29:21.997Z,94620
2015-03-02T00:29:40.515Z,94617
2015-03-02T00:29:58.898Z,94628
2015-03-02T00:30:17.342Z,94614
2015-03-02T00:30:35.899Z,94608
2015-03-02T00:30:54.380Z,94608
2015-03-02T00:31:12.880Z,94606
2015-03-02T00:31:31.658Z,94614
2015-03-02T00:31:50.280Z,94606
2015-03-02T00:32:08.620Z,94605
2015-03-02T00:32:27.192Z,94614
2015-03-02T00:32:45.577Z,94614
2015-03-02T00:33:04.200Z,94603
2015-03-02T00:33:22.605Z,94605
2015-03-02T00:33:40.389Z,94605
2015-03-02T00:33:58.832Z,94611
2015-03-02T00:34:17.637Z,94605
2015-03-02T00:34:36.027Z,94611
2015-03-02T00:34:54.468Z,94605
2015-03-02T00:35:12.865Z,94605
2015-03-02T00:35:31.293Z,94608
2015-03-02T00:35:49.876Z,94605
2015-03-02T00:36:08.503Z,94614
2015-03-02T00:36:26.890Z,94597
2015-03-02T00:36:45.327Z,94605
2015-03-02T00:37:03.708Z,94594
2015-03-02T00:37:22.167Z,94602
2015-03-02T00:37:39.949Z,94614
2015-03-02T00:37:58.409Z,94605
2015-03-02T00:38:16.797Z,94600
2015-03-02T00:38:35.226Z,94602
2015-03-02T00:38:53.610Z,94594
2015-03-02T00:39:12.146Z,94599
2015-03-02T00:39:30.538Z,94594
2015-03-02T00:39:49.008Z,94591
2015-03-02T00:40:07.400Z,94602
2015-03-02T00:40:25.859Z,94591
2015-03-02T00:40:44.287Z,94588
2015-03-02T00:41:02.687Z,94590
2015-03-02T00:41:21.070Z,94596
2015-03-02T00:41:39.456Z,94593
2015-03-02T00:41:57.999Z,94596
2015-03-02T00:42:16.457Z,94596
2015-03-02T00:42:34.189Z,94590
2015-03-02T00:42:52.619Z,94587
2015-03-02T00:43:11.125Z,94590
2015-03-02T00:43:29.746Z,94590
2015-03-02T00:43:48.316Z,94590
2015-03-02T00:44:06.794Z,94575
2015-03-02T00:44:25.219Z,94598
2015-03-02T00:44:43.670Z,94586
2015-03-02T00:45:02.169Z,94583
2015-03-02T00:45:20.559Z,94595
2015-03-02T00:45:38.965Z,94586
2015-03-02T00:45:57.546Z,94588
2015-03-02T00:46:16.207Z,94582
2015-03-02T00:46:34.679Z,94585
2015-03-02T00:46:53.098Z,94587
2015-03-02T00:47:11.487Z,94587
2015-03-02T00:47:29.893Z,94584
2015-03-02T00:47:48.282Z,94587
2015-03-02T00:48:06.863Z,94584
2015-03-02T00:48:25.348Z,94593
2015-03-02T00:48:43.742Z,94587
2015-03-02T00:49:02.344Z,94581
2015-03-02T00:49:20.785Z,94594
2015-03-02T00:49:39.503Z,94577
2015-03-02T00:49:57.960Z,94574
2015-03-02T00:50:16.550Z,94580
2015-03-02T00:50:35.342Z,94582
2015-03-02T00:50:53.860Z,94579
2015-03-02T00:51:12.515Z,94585
2015-03-02T00:51:31.147Z,94574
2015-03-02T00:51:49.707Z,94582
2015-03-02T00:52:08.298Z,94576
2015-03-02T00:52:26.743Z,94581
2015-03-02T00:52:45.147Z,94581
2015-03-02T00:53:03.595Z,94580
2015-03-02T00:53:22.175Z,94592
2015-03-02T00:53:39.976Z,94580
2015-03-02T00:53:58.453Z,94574
2015-03-02T00:54:16.832Z,94580
2015-03-02T00:54:35.434Z,94577
2015-03-02T00:54:53.896Z,94575
2015-03-02T00:55:12.320Z,94589
2015-03-02T00:55:30.691Z,94575
2015-03-02T00:55:49.435Z,94580
2015-03-02T00:56:07.891Z,94572
2015-03-02T00:56:26.473Z,94564
2015-03-02T00:56:45.015Z,94569
2015-03-02T00:57:03.775Z,94580
2015-03-02T00:57:22.445Z,94565
2015-03-02T00:57:40.891Z,94563
2015-03-02T00:57:59.276Z,94568
2015-03-02T00:58:17.783Z,94565
2015-03-02T00:58:36.284Z,94563
2015-03-02T00:58:54.747Z,94568
2015-03-02T00:59:13.254Z,94562
2015-03-02T00:59:31.640Z,94559
2015-03-02T00:59:50.023Z,94559
2015-03-02T01:00:08.417Z,94565
2015-03-02T01:00:27.006Z,94564
2015-03-02T01:00:45.605Z,94559
2015-03-02T01:01:04.380Z,94556
2015-03-02T01:01:22.833Z,94561
2015-03-02T01:03:04.076Z,94555
2015-03-02T01:03:22.600Z,94558
2015-03-02T01:03:41.291Z,94558
2015-03-02T01:03:59.700Z,94552
2015-03-02T01:04:18.291Z,94553
2015-03-02T01:04:36.690Z,94564
2015-03-02T01:04:55.125Z,94549
2015-03-02T01:05:13.636Z,94549
2015-03-02T01:05:32.299Z,94549
2015-03-02T01:05:50.802Z,94544
2015-03-02T01:06:09.188Z,94552
2015-03-02T01:06:27.797Z,94547
2015-03-02T01:06:46.392Z,94544
2015-03-02T01:07:04.806Z,94538
2015-03-02T01:07:23.396Z,94538
2015-03-02T01:07:41.778Z,94542
2015-03-02T01:08:00.225Z,94539
2015-03-02T01:08:18.652Z,94533
2015-03-02T01:08:37.038Z,94531
2015-03-02T01:08:55.689Z,94539
2015-03-02T01:09:14.077Z,94535
2015-03-02T01:09:32.637Z,94529
2015-03-02T01:09:51.037Z,94531
2015-03-02T01:10:09.577Z,94533
2015-03-02T01:10:28.261Z,94540
2015-03-02T01:10:46.848Z,94529
2015-03-02T01:11:05.402Z,94537
2015-03-02T01:11:23.890Z,94537
2015-03-02T01:11:42.284Z,94523
2015-03-02T01:12:00.752Z,94528
2015-03-02T01:12:19.392Z,94531
2015-03-02T01:12:37.906Z,94528
2015-03-02T01:12:56.299Z,94531
2015-03-02T01:13:14.778Z,94528
2015-03-02T01:13:33.304Z,94528
2015-03-02T01:13:51.736Z,94528
2015-03-02T01:14:10.296Z,94531
2015-03-02T01:14:28.905Z,94528
2015-03-02T01:14:47.537Z,94534
2015-03-02T01:15:05.962Z,94525
2015-03-02T01:15:24.920Z,94530
2015-03-02T01:15:43.322Z,94524
2015-03-02T01:16:02.032Z,94530
2015-03-02T01:16:20.520Z,94530
2015-03-02T01:16:39.442Z,94530
2015-03-02T01:16:57.829Z,94524
2015-03-02T01:17:16.298Z,94521
2015-03-02T01:17:34.766Z,94523
2015-03-02T01:17:53.163Z,94520
2015-03-02T01:18:11.547Z,94527
2015-03-02T01:18:30.135Z,94529
2015-03-02T01:18:48.518Z,94510
2015-03-02T01:19:06.927Z,94520
2015-03-02T01:19:25.422Z,94513
2015-03-02T01:19:43.820Z,94523
2015-03-02T01:20:02.605Z,94507
2015-03-02T01:20:21.036Z,94513
2015-03-02T01:20:39.621Z,94510
2015-03-02T01:20:58.002Z,94510
2015-03-02T01:21:16.384Z,94517
2015-03-02T01:21:35.029Z,94503
2015-03-02T01:21:53.532Z,94509
2015-03-02T01:22:12.021Z,94514
2015-03-02T01:22:30.660Z,94505
2015-03-02T01:22:49.333Z,94510
2015-03-02T01:23:07.783Z,94511
2015-03-02T01:23:26.192Z,94508
2015-03-02T01:23:44.879Z,94502
2015-03-02T01:24:03.395Z,94497
2015-03-02T01:24:21.851Z,94502
2015-03-02T01:24:40.339Z,94493
2015-03-02T01:24:58.978Z,94488
2015-03-02T01:25:18.610Z,94494
2015-03-02T01:25:36.989Z,94485
2015-03-02T01:25:55.416Z,94488
2015-03-02T01:26:14.006Z,94494
2015-03-02T01:26:32.575Z,94500
2015-03-02T01:26:51.239Z,94500
2015-03-02T01:27:09.925Z,94494
2015-03-02T01:27:28.632Z,94483
2015-03-02T01:27:47.044Z,94497
2015-03-02T01:28:05.690Z,94485
2015-03-02T01:28:24.184Z,94494
2015-03-02T01:28:42.605Z,94488
2015-03-02T01:29:00.995Z,94497
2015-03-02T01:29:19.587Z,94482
2015-03-02T01:29:38.386Z,94488
2015-03-02T01:29:56.990Z,94490
2015-03-02T01:30:15.421Z,94490
2015-03-02T01:30:34.242Z,94485
2015-03-02T01:30:52.685Z,94485
2015-03-02T01:31:11.075Z,94490
2015-03-02T01:31:29.511Z,94488
2015-03-02T01:31:47.997Z,94480
2015-03-02T01:32:06.465Z,94489
2015-03-02T01:32:24.843Z,94488
2015-03-02T01:32:43.393Z,94483
2015-03-02T01:33:01.855Z,94474
2015-03-02T01:33:20.273Z,94488
2015-03-02T01:33:38.706Z,94477
2015-03-02T01:33:57.090Z,94479
2015-03-02T01:34:15.642Z,94474
2015-03-02T01:34:34.177Z,94476
2015-03-02T01:34:52.762Z,94476
2015-03-02T01:35:10.487Z,94485
2015-03-02T01:35:29.287Z,94479
2015-03-02T01:35:47.721Z,94476
2015-03-02T01:36:06.099Z,94499
2015-03-02T01:36:24.596Z,94487
2015-03-02T01:36:43.180Z,94482
2015-03-02T01:37:01.571Z,94471
2015-03-02T01:37:20.228Z,94488
2015-03-02T01:37:38.606Z,94482
2015-03-02T01:37:56.996Z,94481
2015-03-02T01:38:15.440Z,94470
2015-03-02T01:38:33.820Z,94467
2015-03-02T01:38:52.212Z,94476
2015-03-02T01:39:10.636Z,94475
2015-03-02T01:39:29.106Z,94472
2015-03-02T01:39:47.537Z,94466
2015-03-02T01:40:06.049Z,94475
2015-03-02T01:40:24.456Z,94472
2015-03-02T01:40:42.847Z,94466
2015-03-02T01:41:01.272Z,94475
2015-03-02T01:41:19.652Z,94469
2015-03-02T01:41:38.067Z,94466
2015-03-02T01:41:56.453Z,94481
2015-03-02T01:42:15.086Z,94472
2015-03-02T01:42:33.464Z,94472
2015-03-02T01:42:51.900Z,94477
2015-03-02T01:43:10.338Z,94471
2015-03-02T01:43:28.272Z,94471
2015-03-02T01:43:46.853Z,94468
2015-03-02T01:44:05.388Z,94465
2015-03-02T01:44:23.860Z,94457
2015-03-02T01:44:42.582Z,94457
2015-03-02T01:45:00.967Z,94471
2015-03-02T01:45:19.354Z,94465
2015-03-02T01:45:37.783Z,94465
2015-03-02T01:45:56.165Z,94463
2015-03-02T01:46:14.753Z,94454
2015-03-02T01:46:33.200Z,94467
2015-03-02T01:46:51.607Z,94458
2015-03-02T01:47:09.991Z,94455
2015-03-02T01:47:28.379Z,94447
2015-03-02T01:47:46.968Z,94469
2015-03-02T01:48:05.552Z,94449
2015-03-02T01:48:24.086Z,94457
2015-03-02T01:48:42.613Z,94458
2015-03-02T01:49:01.039Z,94458
2015-03-02T01:49:19.554Z,94461
2015-03-02T01:49:38.063Z,94464
2015-03-02T01:49:56.578Z,94461
2015-03-02T01:50:15.219Z,94459
2015-03-02T01:50:33.613Z,94464
2015-03-02T01:50:52.352Z,94481
2015-03-02T01:51:10.731Z,94472
2015-03-02T01:51:28.636Z,94458
2015-03-02T01:51:47.025Z,94467
2015-03-02T01:52:05.611Z,94463
2015-03-02T01:52:24.033Z,94461
2015-03-02T01:52:42.419Z,94458
2015-03-02T01:53:00.930Z,94464
2015-03-02T01:53:19.324Z,94461
2015-03-02T01:53:37.711Z,94453
2015-03-02T01:53:56.146Z,94441
2015-03-02T01:54:14.532Z,94447
2015-03-02T01:54:32.945Z,94452
2015-03-02T01:54:51.632Z,94445
2015-03-02T01:55:10.018Z,94442
2015-03-02T01:55:28.398Z,94450
2015-03-02T01:55:46.991Z,94441
2015-03-02T01:56:05.374Z,94436
2015-03-02T01:56:23.758Z,94433
2015-03-02T01:56:42.171Z,94436
2015-03-02T01:57:00.563Z,94444
2015-03-02T01:57:18.663Z,94441
2015-03-02T01:57:37.054Z,94435
2015-03-02T01:57:55.452Z,94433
2015-03-02T01:58:13.866Z,94425
2015-03-02T01:58:32.278Z,94425
2015-03-02T01:58:50.690Z,94433
2015-03-02T01:59:09.077Z,94433
2015-03-02T01:59:27.511Z,94425
2015-03-02T01:59:45.895Z,94436
2015-03-02T02:00:04.467Z,94428
2015-03-02T02:00:22.911Z,94425
2015-03-02T02:00:41.190Z,94428
2015-03-02T02:00:59.651Z,94425
2015-03-02T02:01:18.038Z,94422
2015-03-02T02:01:36.521Z,94419
2015-03-02T02:01:54.911Z,94416
2015-03-02T02:02:13.368Z,94427
2015-03-02T02:02:32.013Z,94424
2015-03-02T02:02:50.534Z,94411
2015-03-02T02:03:08.918Z,94417
2015-03-02T02:03:27.302Z,94416
2015-03-02T02:03:46.062Z,94414
2015-03-02T02:04:04.510Z,94416
2015-03-02T02:04:23.163Z,94433
2015-03-02T02:04:41.563Z,94413
2015-03-02T02:05:00.001Z,94416
2015-03-02T02:05:18.374Z,94419
2015-03-02T02:05:36.961Z,94427
2015-03-02T02:05:55.430Z,94418
2015-03-02T02:06:13.943Z,94419
2015-03-02T02:06:32.526Z,94413
2015-03-02T02:06:51.036Z,94419
2015-03-02T02:07:09.425Z,94424
2015-03-02T02:07:27.867Z,94434
2015-03-02T02:07:46.294Z,94417
2015-03-02T02:08:04.878Z,94412
2015-03-02T02:08:22.656Z,94406
2015-03-02T02:08:41.045Z,94418
2015-03-02T02:08:59.448Z,94406
2015-03-02T02:09:18.043Z,94410
2015-03-02T02:09:36.426Z,94399
2015-03-02T02:09:55.087Z,94404
2015-03-02T02:10:13.468Z,94415
2015-03-02T02:10:32.781Z,94409
2015-03-02T02:10:51.443Z,94416
2015-03-02T02:11:09.978Z,94406
2015-03-02T02:11:28.538Z,94407
2015-03-02T02:11:47.057Z,94412
2015-03-02T02:12:05.447Z,94418
2015-03-02T02:12:23.888Z,94405
2015-03-02T02:12:42.281Z,94405
2015-03-02T02:13:00.753Z,94419
2015-03-02T02:13:19.366Z,94408
2015-03-02T02:13:38.073Z,94405
2015-03-02T02:13:56.463Z,94399
2015-03-02T02:14:14.998Z,94405
2015-03-02T02:14:33.380Z,94419
2015-03-02T02:14:52.077Z,94410
2015-03-02T02:15:10.600Z,94407
2015-03-02T02:15:29.240Z,94418
2015-03-02T02:15:47.872Z,94404
2015-03-02T02:16:06.254Z,94421
2015-03-02T02:16:24.759Z,94406
2015-03-02T02:16:43.218Z,94412
2015-03-02T02:21:12.885Z,94391
2015-03-02T02:21:31.392Z,94385
2015-03-02T02:21:49.917Z,94397
2015-03-02T02:22:08.305Z,94386
2015-03-02T02:22:26.541Z,94411
2015-03-02T02:22:44.934Z,94388
2015-03-02T02:23:03.317Z,94386
2015-03-02T02:23:21.697Z,94379
2015-03-02T02:23:40.120Z,94402
2015-03-02T02:23:58.526Z,94394
2015-03-02T02:24:16.906Z,94386
2015-03-02T02:24:35.506Z,94397
2015-03-02T02:24:54.163Z,94391
2015-03-02T02:25:12.574Z,94388
2015-03-02T02:25:31.279Z,94394
2015-03-02T02:25:49.668Z,94386
2015-03-02T02:26:08.264Z,94400
2015-03-02T02:26:26.728Z,94397
2015-03-02T02:26:45.256Z,94391
2015-03-02T02:27:03.968Z,94392
2015-03-02T02:27:22.360Z,94395
2015-03-02T02:27:40.963Z,94397
2015-03-02T02:27:59.348Z,94397
2015-03-02T02:28:17.882Z,94392
2015-03-02T02:28:36.475Z,94408
2015-03-02T02:28:54.904Z,94395
2015-03-02T02:29:13.019Z,94397
2015-03-02T02:29:31.467Z,94406
2015-03-02T02:29:49.860Z,94403
2015-03-02T02:30:08.242Z,94400
2015-03-02T02:30:26.824Z,94388
2015-03-02T02:30:45.259Z,94405
2015-03-02T02:31:03.647Z,94394
2015-03-02T02:31:22.104Z,94403
2015-03-02T02:31:40.499Z,94408
2015-03-02T02:31:58.883Z,94403
2015-03-02T02:32:17.291Z,94393
2015-03-02T02:32:35.719Z,94401
2015-03-02T02:32:53.744Z,94401
2015-03-02T02:33:12.362Z,94395
2015-03-02T02:33:30.784Z,94414
2015-03-02T02:33:49.237Z,94397
2015-03-02T02:34:07.632Z,94402
2015-03-02T02:34:26.144Z,94409
2015-03-02T02:34:44.535Z,94403
2015-03-02T02:35:02.966Z,94411
2015-03-02T02:35:21.567Z,94406
2015-03-02T02:35:39.480Z,94404
2015-03-02T02:35:58.059Z,94409
2015-03-02T02:36:15.986Z,94401
2015-03-02T02:37:16.353Z,94415
2015-03-02T02:37:34.819Z,94411
2015-03-02T02:37:53.404Z,94411
2015-03-02T02:38:11.861Z,94414
2015-03-02T02:38:30.682Z,94408
2015-03-02T02:38:49.122Z,94410
2015-03-02T02:39:07.509Z,94410
2015-03-02T02:39:26.084Z,94419
2015-03-02T02:39:44.558Z,94413
2015-03-02T02:40:02.992Z,94426
2015-03-02T02:40:21.535Z,94415
2015-03-02T02:40:40.074Z,94417
2015-03-02T02:40:58.650Z,94420
2015-03-02T02:41:17.397Z,94425
2015-03-02T02:41:35.783Z,94420
2015-03-02T02:41:54.317Z,94428
2015-03-02T02:42:12.725Z,94436
2015-03-02T02:42:31.119Z,94422
2015-03-02T02:42:49.722Z,94432
2015-03-02T02:43:08.303Z,94422
2015-03-02T02:43:26.933Z,94425
2015-03-02T02:43:45.533Z,94429
2015-03-02T02:44:03.912Z,94437
2015-03-02T02:44:22.494Z,94429
2015-03-02T02:44:41.128Z,94424
2015-03-02T02:44:59.548Z,94426
2015-03-02T02:45:18.043Z,94422
2015-03-02T02:45:36.560Z,94416
2015-03-02T02:45:54.954Z,94419
2015-03-02T02:46:13.347Z,94432
2015-03-02T02:46:31.740Z,94416
2015-03-02T02:46:50.248Z,94413
2015-03-02T02:47:07.979Z,94424
2015-03-02T02:47:26.542Z,94421
2015-03-02T02:47:44.928Z,94423
2015-03-02T02:48:03.322Z,94423
2015-03-02T02:48:21.803Z,94417
2015-03-02T02:48:40.363Z,94425
2015-03-02T02:48:58.816Z,94429
2015-03-02T02:49:17.341Z,94422
2015-03-02T02:49:35.724Z,94417
2015-03-02T02:49:54.110Z,94417
2015-03-02T02:50:12.598Z,94420
2015-03-02T02:50:31.177Z,94420
2015-03-02T02:50:49.564Z,94422
2015-03-02T02:51:08.022Z,94433
2015-03-02T02:51:26.851Z,94417
2015-03-02T02:51:45.238Z,94402
2015-03-02T02:52:03.753Z,94422
2015-03-02T02:52:22.336Z,94416
2015-03-02T02:54:03.445Z,94413
2015-03-02T02:54:21.854Z,94410
2015-03-02T02:54:40.341Z,94407
2015-03-02T02:54:58.805Z,94404
2015-03-02T02:55:18.383Z,94407
2015-03-02T02:55:36.793Z,94413
2015-03-02T02:55:55.182Z,94412
2015-03-02T02:56:13.794Z,94409
2015-03-02T02:56:32.365Z,94418
2015-03-02T02:56:50.752Z,94415
2015-03-02T02:57:09.205Z,94409
2015-03-02T02:57:27.635Z,94411
2015-03-02T02:57:46.022Z,94408
2015-03-02T02:58:04.404Z,94400
2015-03-02T02:58:22.845Z,94402
2015-03-02T02:58:41.227Z,94396
2015-03-02T02:58:59.883Z,94396
2015-03-02T02:59:18.263Z,94404
2015-03-02T02:59:36.646Z,94393
2015-03-02T02:59:55.049Z,94390
2015-03-02T03:00:13.432Z,94387
2015-03-02T03:00:32.016Z,94384
2015-03-02T03:00:50.400Z,94387
2015-03-02T03:01:09.014Z,94378
2015-03-02T03:01:27.419Z,94392
2015-03-02T03:01:45.807Z,94383
2015-03-02T03:02:04.190Z,94375
2015-03-02T03:02:22.577Z,94378
2015-03-02T03:02:40.963Z,94379
2015-03-02T03:02:59.545Z,94380
2015-03-02T03:03:17.932Z,94378
2015-03-02T03:03:36.312Z,94381
2015-03-02T03:03:54.695Z,94372
2015-03-02T03:04:13.081Z,94381
2015-03-02T03:04:31.458Z,94383
2015-03-02T03:04:49.839Z,94383
2015-03-02T03:05:08.265Z,94374
2015-03-02T03:05:26.877Z,94377
2015-03-02T03:05:45.433Z,94380
2015-03-02T03:06:03.859Z,94391
2015-03-02T03:06:22.245Z,94383
2015-03-02T03:06:40.692Z,94383
2015-03-02T03:06:59.366Z,94377
2015-03-02T03:07:17.831Z,94371
2015-03-02T03:07:36.217Z,94380
2015-03-02T03:07:54.609Z,94378
2015-03-02T03:08:13.064Z,94375
2015-03-02T03:08:31.697Z,94375
2015-03-02T03:08:50.179Z,94381
2015-03-02T03:09:08.569Z,94381
2015-03-02T03:09:26.967Z,94378
2015-03-02T03:09:45.357Z,94386
2015-03-02T03:10:03.743Z,94386
2015-03-02T03:10:22.324Z,94392
2015-03-02T03:10:40.903Z,94375
2015-03-02T03:10:59.365Z,94381
2015-03-02T03:11:17.746Z,94373
2015-03-02T03:11:36.124Z,94381
2015-03-02T03:11:54.543Z,94365
2015-03-02T03:12:13.126Z,94370
2015-03-02T03:12:31.727Z,94352
2015-03-02T03:12:50.317Z,94374
2015-03-02T03:13:08.754Z,94371
2015-03-02T03:13:27.310Z,94365
2015-03-02T03:13:45.764Z,94366
2015-03-02T03:14:04.154Z,94352
2015-03-02T03:14:22.742Z,94363
2015-03-02T03:14:41.128Z,94374
2015-03-02T03:14:59.516Z,94371
2015-03-02T03:15:17.896Z,94362
2015-03-02T03:15:36.280Z,94375
2015-03-02T03:15:54.674Z,94381
2015-03-02T03:16:13.241Z,94369
2015-03-02T03:16:31.623Z,94375
2015-03-02T03:16:49.398Z,94389
2015-03-02T03:17:07.826Z,94369
2015-03-02T03:17:26.203Z,94375
2015-03-02T03:17:44.643Z,94371
2015-03-02T03:18:03.026Z,94365
2015-03-02T03:18:21.417Z,94374
2015-03-02T03:18:39.932Z,94370
2015-03-02T03:18:58.520Z,94362
2015-03-02T03:19:16.935Z,94368
2015-03-02T03:19:35.385Z,94360
2015-03-02T03:19:54.057Z,94360
2015-03-02T03:20:12.451Z,94368
2015-03-02T03:20:30.834Z,94357
2015-03-02T03:20:49.425Z,94365
2015-03-02T03:21:08.018Z,94365
2015-03-02T03:21:26.398Z,94368
2015-03-02T03:21:45.097Z,94365
2015-03-02T03:22:03.768Z,94362
2015-03-02T03:22:22.152Z,94365
2015-03-02T03:22:40.569Z,94371
2015-03-02T03:22:59.165Z,94373
2015-03-02T03:23:17.641Z,94362
2015-03-02T03:23:36.057Z,94376
2015-03-02T03:23:54.443Z,94382
2015-03-02T03:24:12.878Z,94382
2015-03-02T03:24:31.530Z,94374
2015-03-02T03:24:49.947Z,94372
2015-03-02T03:25:08.393Z,94377
2015-03-02T03:25:26.779Z,94370
2015-03-02T03:25:45.378Z,94384
2015-03-02T03:26:03.758Z,94376
2015-03-02T03:26:22.312Z,94376
2015-03-02T03:26:40.756Z,94378
2015-03-02T03:26:59.210Z,94392
2015-03-02T03:27:17.809Z,94389
2015-03-02T03:27:36.392Z,94380
2015-03-02T03:27:54.858Z,94374
2015-03-02T03:28:13.314Z,94369
2015-03-02T03:28:31.709Z,94377
2015-03-02T03:28:50.351Z,94388
2015-03-02T03:29:08.736Z,94380
2015-03-02T03:29:27.352Z,94384
2015-03-02T03:29:45.805Z,94391
2015-03-02T03:30:04.189Z,94389
2015-03-02T03:30:22.683Z,94385
2015-03-02T03:30:41.066Z,94379
2015-03-02T03:30:59.576Z,94387
2015-03-02T03:31:17.954Z,94376
2015-03-02T03:31:36.338Z,94384
2015-03-02T03:31:54.743Z,94381
2015-03-02T03:32:13.131Z,94381
2015-03-02T03:32:31.539Z,94375
2015-03-02T03:32:49.919Z,94389
2015-03-02T03:33:08.311Z,94381
2015-03-02T03:33:26.874Z,94376
2015-03-02T03:33:45.342Z,94382
2015-03-02T03:34:03.965Z,94387
2015-03-02T03:34:22.422Z,94393
2015-03-02T03:34:40.817Z,94390
2015-03-02T03:34:59.404Z,94384
2015-03-02T03:35:17.830Z,94398
2015-03-02T03:35:36.211Z,94378
2015-03-02T03:35:53.945Z,94389
2015-03-02T03:36:12.484Z,94391
2015-03-02T03:36:31.032Z,94380
2015-03-02T03:36:49.540Z,94382
2015-03-02T03:37:07.924Z,94379
2015-03-02T03:37:26.482Z,94382
2015-03-02T03:37:44.862Z,94385
2015-03-02T03:38:03.245Z,94382
2015-03-02T03:39:44.388Z,94382
2015-03-02T03:40:02.313Z,94390
2015-03-02T03:41:59.575Z,94392
2015-03-02T03:42:18.189Z,94381
2015-03-02T03:42:36.689Z,94390
2015-03-02T03:42:55.277Z,94381
2015-03-02T03:43:13.788Z,94386
2015-03-02T03:43:32.230Z,94384
2015-03-02T03:43:50.769Z,94376
2015-03-02T03:44:09.318Z,94384
2015-03-02T03:44:27.702Z,94396
2015-03-02T03:44:46.210Z,94396
2015-03-02T03:45:04.791Z,94394
2015-03-02T03:45:23.299Z,94394
2015-03-02T03:45:41.684Z,94383
2015-03-02T03:46:00.067Z,94402
2015-03-02T03:46:18.598Z,94400
2015-03-02T03:46:57.665Z,94400
2015-03-02T03:47:16.249Z,94386
2015-03-02T03:47:34.633Z,94395
2015-03-02T03:47:53.609Z,94400
2015-03-02T03:48:12.043Z,94406
2015-03-02T03:48:30.428Z,94400
2015-03-02T03:48:48.963Z,94400
2015-03-02T03:49:07.387Z,94397
2015-03-02T03:49:26.010Z,94392
2015-03-02T03:49:44.549Z,94395
2015-03-02T03:50:03.014Z,94401
2015-03-02T03:50:21.578Z,94392
2015-03-02T03:50:40.120Z,94401
2015-03-02T03:50:58.700Z,94397
2015-03-02T03:51:17.206Z,94389
2015-03-02T03:51:35.745Z,94392
2015-03-02T03:51:54.298Z,94391
2015-03-02T03:52:12.915Z,94382
2015-03-02T03:52:31.305Z,94385
2015-03-02T03:52:49.691Z,94399
2015-03-02T03:53:08.087Z,94391
2015-03-02T03:53:26.666Z,94385
2015-03-02T03:53:45.051Z,94393
2015-03-02T03:54:03.621Z,94393
2015-03-02T03:54:22.002Z,94382
2015-03-02T03:54:40.387Z,94393
2015-03-02T03:54:58.946Z,94387
2015-03-02T03:55:17.350Z,94390
2015-03-02T03:55:35.734Z,94378
2015-03-02T03:55:54.142Z,94400
2015-03-02T03:56:12.545Z,94399
2015-03-02T03:56:30.941Z,94391
2015-03-02T03:56:57.800Z,94386
2015-03-02T03:57:16.194Z,94386
2015-03-02T03:57:34.739Z,94382
2015-03-02T03:57:53.320Z,94387
2015-03-02T03:58:11.775Z,94388
2015-03-02T03:58:30.272Z,94391
2015-03-02T03:58:48.717Z,94385
2015-03-02T03:59:07.102Z,94388
2015-03-02T03:59:25.632Z,94394
2015-03-02T03:59:44.014Z,94379
2015-03-02T04:00:02.473Z,94380
2015-03-02T04:00:20.944Z,94374
2015-03-02T04:00:39.399Z,94386
2015-03-02T04:00:57.787Z,94365
2015-03-02T04:01:16.277Z,94377
2015-03-02T04:01:34.660Z,94371
2015-03-02T04:01:53.097Z,94380
2015-03-02T04:02:11.494Z,94363
2015-03-02T04:02:29.893Z,94374
2015-03-02T04:02:48.347Z,94374
2015-03-02T04:03:06.760Z,94375
2015-03-02T04:03:25.308Z,94375
2015-03-02T04:03:43.689Z,94375
2015-03-02T04:04:02.080Z,94373
2015-03-02T04:04:20.539Z,94370
2015-03-02T04:04:38.920Z,94385
2015-03-02T04:04:57.328Z,94379
2015-03-02T04:05:15.745Z,94381
2015-03-02T04:05:34.125Z,94382
2015-03-02T04:05:52.585Z,94390
2015-03-02T04:06:11.147Z,94388
2015-03-02T04:06:29.529Z,94373
2015-03-02T04:06:48.095Z,94361
2015-03-02T04:07:06.720Z,94370
2015-03-02T04:07:25.107Z,94376
2015-03-02T04:07:43.492Z,94376
2015-03-02T04:08:01.916Z,94364
2015-03-02T04:08:20.542Z,94379
2015-03-02T04:08:39.047Z,94396
2015-03-02T04:08:57.619Z,94387